createdAt,value
2022-08-11T00:02:00.503Z,13.70
2022-08-11T00:04:34.543Z,13.70
2022-08-11T00:07:04.401Z,13.70
2022-08-11T00:09:39.512Z,13.70
2022-08-11T00:12:14.870Z,13.70
2022-08-11T00:14:43.256Z,13.70
2022-08-11T00:17:14.774Z,13.80
2022-08-11T00:20:14.492Z,13.90
2022-08-11T00:22:34.386Z,13.90
2022-08-11T00:25:11.168Z,13.90
2022-08-11T00:27:40.034Z,13.90
2022-08-11T00:30:12.095Z,13.90
2022-08-11T00:32:44.937Z,13.90
2022-08-11T00:35:51.249Z,13.90
2022-08-11T00:38:03.453Z,13.90
2022-08-11T00:41:03.955Z,13.90
2022-08-11T00:43:48.078Z,13.90
2022-08-11T00:46:26.375Z,13.80
2022-08-11T00:49:12.460Z,13.90
2022-08-11T00:52:20.713Z,13.80
2022-08-11T00:55:27.049Z,13.80
2022-08-11T00:58:21.898Z,13.70
2022-08-11T01:00:58.681Z,13.70
2022-08-11T01:03:58.793Z,13.80
2022-08-11T01:06:49.544Z,13.70
2022-08-11T01:09:50.405Z,13.70
2022-08-11T01:12:53.204Z,13.80
2022-08-11T01:15:55.670Z,13.80
2022-08-11T01:18:46.051Z,13.80
2022-08-11T01:21:46.682Z,13.80
2022-08-11T01:24:26.553Z,13.70
2022-08-11T01:27:21.310Z,13.70
2022-08-11T01:30:19.836Z,13.60
2022-08-11T01:33:20.171Z,13.60
2022-08-11T01:36:33.316Z,13.60
2022-08-11T01:39:18.778Z,13.70
2022-08-11T01:42:22.946Z,13.60
2022-08-11T01:45:15.207Z,13.50
2022-08-11T01:48:21.431Z,13.50
2022-08-11T01:51:31.912Z,13.40
2022-08-11T01:54:17.294Z,13.30
2022-08-11T01:57:10.408Z,13.30
2022-08-11T01:59:49.446Z,13.20
2022-08-11T02:02:54.051Z,13.20
2022-08-11T02:06:02.305Z,13.10
2022-08-11T02:08:50.352Z,13.00
2022-08-11T02:11:35.271Z,13.00
2022-08-11T02:14:28.033Z,12.90
2022-08-11T02:17:23.011Z,12.80
2022-08-11T02:20:15.245Z,12.70
2022-08-11T02:23:25.053Z,12.70
2022-08-11T02:26:24.818Z,12.60
2022-08-11T02:29:17.870Z,12.40
2022-08-11T02:32:33.671Z,12.40
2022-08-11T02:35:09.808Z,12.30
2022-08-11T02:37:48.832Z,12.30
2022-08-11T02:40:42.882Z,12.30
2022-08-11T02:43:23.533Z,12.40
2022-08-11T02:46:18.133Z,12.40
2022-08-11T02:49:19.594Z,12.30
2022-08-11T02:52:14.218Z,12.30
2022-08-11T02:55:50.887Z,12.30
2022-08-11T02:58:37.074Z,12.20
2022-08-11T03:01:39.203Z,12.20
2022-08-11T03:04:17.823Z,12.10
2022-08-11T03:07:28.872Z,12.10
2022-08-11T03:10:23.612Z,12.00
2022-08-11T03:13:16.903Z,12.00
2022-08-11T03:16:40.876Z,12.10
2022-08-11T03:19:40.180Z,12.00
2022-08-11T03:22:25.082Z,12.00
2022-08-11T03:25:03.888Z,12.00
2022-08-11T03:27:46.815Z,12.10
2022-08-11T03:30:17.986Z,12.10
2022-08-11T03:33:17.664Z,12.10
2022-08-11T03:36:17.153Z,12.10
2022-08-11T03:39:20.345Z,12.10
2022-08-11T03:42:16.354Z,12.20
2022-08-11T03:45:07.285Z,12.20
2022-08-11T03:48:02.537Z,12.20
2022-08-11T03:50:44.691Z,12.20
2022-08-11T03:53:28.261Z,12.30
2022-08-11T03:56:13.041Z,12.40
2022-08-11T03:59:18.800Z,12.60
2022-08-11T04:02:19.703Z,12.70
2022-08-11T04:05:14.474Z,12.80
2022-08-11T04:08:03.511Z,12.90
2022-08-11T04:11:10.043Z,12.90
2022-08-11T04:14:31.080Z,12.90
2022-08-11T04:16:58.801Z,13.00
2022-08-11T04:20:11.973Z,13.00
2022-08-11T04:23:03.455Z,13.00
2022-08-11T04:25:58.291Z,13.10
2022-08-11T04:28:31.421Z,13.30
2022-08-11T04:31:13.523Z,13.40
2022-08-11T04:34:40.955Z,13.60
2022-08-11T04:37:35.025Z,13.70
2022-08-11T04:40:08.007Z,13.90
2022-08-11T04:43:06.147Z,14.10
2022-08-11T04:45:56.208Z,14.20
2022-08-11T04:49:12.474Z,14.30
2022-08-11T04:52:16.720Z,14.40
2022-08-11T04:55:40.365Z,14.50
2022-08-11T04:58:55.720Z,14.70
2022-08-11T05:01:43.983Z,14.80
2022-08-11T05:05:11.649Z,14.90
2022-08-11T05:08:17.716Z,15.00
2022-08-11T05:10:58.492Z,15.20
2022-08-11T05:14:17.851Z,15.30
2022-08-11T05:17:13.079Z,15.50
2022-08-11T05:20:05.463Z,15.80
2022-08-11T05:22:52.876Z,16.00
2022-08-11T05:26:45.123Z,16.20
2022-08-11T05:28:59.464Z,16.30
2022-08-11T05:31:53.804Z,16.60
2022-08-11T05:34:42.728Z,16.70
2022-08-11T05:37:34.529Z,16.90
2022-08-11T05:40:29.262Z,17.20
2022-08-11T05:43:20.479Z,17.40
2022-08-11T05:46:20.814Z,17.60
2022-08-11T05:49:08.391Z,17.80
2022-08-11T05:51:57.181Z,18.00
2022-08-11T05:54:51.266Z,18.10
2022-08-11T05:57:39.685Z,18.20
2022-08-11T06:00:14.954Z,18.50
2022-08-11T06:02:44.337Z,18.70
2022-08-11T06:05:12.347Z,18.80
2022-08-11T06:07:49.293Z,19.00
2022-08-11T06:10:36.470Z,19.20
2022-08-11T06:13:05.648Z,19.60
2022-08-11T06:15:43.678Z,19.80
2022-08-11T06:18:12.828Z,20.20
2022-08-11T06:20:55.299Z,20.50
2022-08-11T06:23:25.232Z,20.80
2022-08-11T06:25:56.538Z,20.90
2022-08-11T06:28:33.013Z,21.40
2022-08-11T06:31:00.670Z,21.60
2022-08-11T06:33:48.865Z,22.10
2022-08-11T06:36:28.093Z,22.50
2022-08-11T06:39:08.776Z,22.90
2022-08-11T06:41:57.678Z,23.20
2022-08-11T06:44:32.387Z,23.80
2022-08-11T06:47:08.941Z,24.50
2022-08-11T06:50:01.411Z,25.10
2022-08-11T06:52:37.104Z,25.60
2022-08-11T06:55:56.858Z,25.80
2022-08-11T06:58:18.215Z,25.90
2022-08-11T07:00:48.788Z,26.30
2022-08-11T07:03:21.789Z,26.80
2022-08-11T07:05:55.995Z,27.20
2022-08-11T07:08:59.842Z,27.80
2022-08-11T07:12:17.993Z,28.20
2022-08-11T07:15:10.575Z,28.00
2022-08-11T07:18:17.743Z,28.50
2022-08-11T07:21:03.386Z,29.70
2022-08-11T07:23:53.910Z,29.90
2022-08-11T07:26:42.367Z,29.50
2022-08-11T07:29:16.299Z,29.30
2022-08-11T07:31:51.920Z,29.50
2022-08-11T07:34:23.606Z,30.10
2022-08-11T07:36:53.803Z,30.50
2022-08-11T07:39:27.669Z,31.20
2022-08-11T07:41:58.435Z,31.90
2022-08-11T07:44:34.380Z,31.80
2022-08-11T07:47:21.000Z,31.80
2022-08-11T07:50:09.089Z,31.10
2022-08-11T07:52:38.406Z,30.60
2022-08-11T07:55:17.230Z,31.00
2022-08-11T07:58:16.499Z,31.40
2022-08-11T08:01:21.651Z,32.50
2022-08-11T08:04:09.619Z,33.30
2022-08-11T08:06:56.590Z,33.30
2022-08-11T08:09:44.447Z,33.40
2022-08-11T08:12:31.803Z,33.90
2022-08-11T08:15:19.323Z,34.90
2022-08-11T08:18:20.943Z,35.60
2022-08-11T08:20:45.807Z,35.20
2022-08-11T08:23:13.699Z,33.80
2022-08-11T08:25:43.281Z,34.20
2022-08-11T08:28:21.163Z,34.40
2022-08-11T08:30:56.229Z,34.00
2022-08-11T08:33:30.419Z,34.00
2022-08-11T08:36:13.060Z,34.10
2022-08-11T08:38:42.367Z,33.20
2022-08-11T08:41:13.302Z,34.20
2022-08-11T08:43:49.574Z,35.30
2022-08-11T08:46:20.993Z,35.50
2022-08-11T08:48:49.168Z,35.80
2022-08-11T08:51:56.991Z,35.30
2022-08-11T08:54:34.302Z,33.80
2022-08-11T08:57:05.300Z,34.80
2022-08-11T08:59:47.495Z,35.30
2022-08-11T09:02:18.189Z,35.80
2022-08-11T09:04:46.900Z,36.30
2022-08-11T09:07:16.692Z,35.80
2022-08-11T09:09:45.580Z,33.80
2022-08-11T09:12:13.777Z,32.90
2022-08-11T09:15:03.372Z,33.70
2022-08-11T09:17:46.213Z,34.00
2022-08-11T09:20:19.752Z,31.20
2022-08-11T09:26:16.369Z,30.90
2022-08-11T09:28:45.319Z,30.40
2022-08-11T09:31:14.143Z,32.00
2022-08-11T09:33:43.094Z,32.60
2022-08-11T09:36:30.800Z,31.70
2022-08-11T09:39:17.218Z,32.40
2022-08-11T09:42:00.441Z,33.60
2022-08-11T09:44:49.463Z,34.00
2022-08-11T09:47:31.682Z,31.70
2022-08-11T09:50:01.741Z,29.70
2022-08-11T09:52:36.327Z,28.70
2022-08-11T09:55:11.094Z,27.40
2022-08-11T09:58:04.505Z,26.60
2022-08-11T10:00:40.260Z,29.30
2022-08-11T10:03:12.484Z,31.60
2022-08-11T10:06:07.729Z,32.90
2022-08-11T10:08:38.007Z,35.00
2022-08-11T10:11:09.425Z,36.70
2022-08-11T10:14:33.032Z,36.10
2022-08-11T10:16:50.051Z,33.30
2022-08-11T10:19:19.367Z,30.50
2022-08-11T10:22:11.698Z,29.70
2022-08-11T10:25:00.338Z,29.30
2022-08-11T10:28:16.654Z,28.50
2022-08-11T10:30:33.492Z,27.50
2022-08-11T10:33:37.543Z,26.30
2022-08-11T10:36:16.418Z,25.80
2022-08-11T10:38:46.823Z,25.70
2022-08-11T10:41:33.259Z,25.70
2022-08-11T10:44:03.858Z,25.90
2022-08-11T10:46:50.455Z,26.10
2022-08-11T10:49:19.393Z,26.10
2022-08-11T10:52:06.003Z,25.70
2022-08-11T10:54:54.084Z,25.50
2022-08-11T10:57:41.116Z,25.70
2022-08-11T11:00:15.189Z,25.90
2022-08-11T11:03:16.846Z,26.10
2022-08-11T11:05:34.948Z,26.10
2022-08-11T11:08:31.322Z,25.90
2022-08-11T11:10:59.368Z,26.00
2022-08-11T11:13:55.177Z,26.00
2022-08-11T11:16:44.656Z,26.20
2022-08-11T11:19:15.314Z,26.30
2022-08-11T11:21:43.461Z,26.20
2022-08-11T11:24:43.514Z,26.20
2022-08-11T11:27:17.955Z,26.30
2022-08-11T11:30:10.626Z,26.30
2022-08-11T11:32:50.018Z,26.00
2022-08-11T11:35:31.931Z,25.90
2022-08-11T11:38:04.067Z,25.70
2022-08-11T11:40:33.232Z,25.30
2022-08-11T11:43:01.610Z,25.10
2022-08-11T11:45:29.009Z,25.10
2022-08-11T11:47:59.631Z,25.20
2022-08-11T11:50:31.563Z,25.30
2022-08-11T11:53:01.834Z,25.60
2022-08-11T11:55:30.544Z,25.90
2022-08-11T11:58:19.887Z,26.50
2022-08-11T12:01:10.556Z,26.50
2022-08-11T12:03:39.498Z,26.10
2022-08-11T12:06:09.295Z,25.50
2022-08-11T12:08:37.426Z,25.10
2022-08-11T12:11:26.226Z,25.00
2022-08-11T12:13:55.577Z,25.00
2022-08-11T12:16:34.770Z,25.10
2022-08-11T12:19:06.789Z,25.30
2022-08-11T12:21:36.964Z,25.50
2022-08-11T12:24:29.197Z,25.70
2022-08-11T12:27:17.719Z,25.80
2022-08-11T12:29:51.567Z,25.60
2022-08-11T12:32:30.268Z,25.80
2022-08-11T12:34:58.279Z,25.90
2022-08-11T12:37:30.830Z,25.90
2022-08-11T12:40:42.956Z,25.50
2022-08-11T12:43:38.979Z,25.30
2022-08-11T12:46:21.659Z,25.30
2022-08-11T12:49:14.301Z,25.60
2022-08-11T12:52:11.423Z,25.70
2022-08-11T12:55:02.410Z,25.60
2022-08-11T12:57:51.023Z,25.70
2022-08-11T13:00:38.171Z,25.70
2022-08-11T13:03:27.134Z,25.60
2022-08-11T13:05:57.185Z,25.80
2022-08-11T13:08:26.463Z,26.00
2022-08-11T13:11:13.691Z,26.00
2022-08-11T13:13:53.916Z,26.20
2022-08-11T13:16:57.896Z,26.10
2022-08-11T13:19:26.175Z,26.00
2022-08-11T13:21:53.660Z,25.80
2022-08-11T13:24:22.497Z,25.50
2022-08-11T13:26:51.063Z,25.60
2022-08-11T13:29:22.433Z,25.70
2022-08-11T13:31:50.740Z,25.80
2022-08-11T13:34:19.961Z,26.00
2022-08-11T13:36:52.538Z,26.10
2022-08-11T13:39:25.890Z,26.10
2022-08-11T13:41:59.449Z,26.10
2022-08-11T13:44:30.349Z,25.90
2022-08-11T13:47:04.405Z,25.90
2022-08-11T13:49:35.129Z,25.80
2022-08-11T13:52:04.387Z,25.80
2022-08-11T13:54:35.243Z,25.70
2022-08-11T13:57:09.031Z,25.70
2022-08-11T13:59:43.997Z,25.60
2022-08-11T14:02:29.093Z,25.70
2022-08-11T14:05:11.946Z,25.70
2022-08-11T14:07:42.102Z,26.00
2022-08-11T14:10:12.194Z,26.10
2022-08-11T14:13:01.635Z,26.10
2022-08-11T14:15:34.472Z,27.10
2022-08-11T14:18:08.206Z,28.60
2022-08-11T14:20:57.655Z,30.20
2022-08-11T14:23:46.197Z,31.70
2022-08-11T14:26:27.038Z,32.00
2022-08-11T14:28:59.704Z,32.00
2022-08-11T14:31:29.086Z,31.60
2022-08-11T14:34:02.060Z,31.30
2022-08-11T14:36:35.430Z,31.40
2022-08-11T14:39:13.089Z,32.00
2022-08-11T14:42:11.437Z,31.80
2022-08-11T14:45:11.195Z,32.30
2022-08-11T14:47:40.708Z,32.80
2022-08-11T14:50:14.090Z,32.70
2022-08-11T14:52:55.222Z,31.00
2022-08-11T14:55:43.369Z,30.40
2022-08-11T14:58:13.113Z,29.00
2022-08-11T15:00:41.810Z,29.10
2022-08-11T15:03:12.632Z,28.80
2022-08-11T15:05:58.403Z,28.50
2022-08-11T15:08:53.236Z,29.10
2022-08-11T15:11:42.525Z,29.60
2022-08-11T15:14:12.016Z,29.10
2022-08-11T15:17:03.098Z,28.40
2022-08-11T15:19:40.623Z,28.00
2022-08-11T15:22:28.695Z,27.50
2022-08-11T15:24:58.798Z,27.30
2022-08-11T15:27:45.722Z,27.10
2022-08-11T15:30:33.217Z,26.80
2022-08-11T15:33:29.523Z,26.50
2022-08-11T15:36:16.494Z,26.20
2022-08-11T15:38:54.883Z,26.10
2022-08-11T15:41:54.501Z,26.00
2022-08-11T15:45:02.791Z,25.70
2022-08-11T15:48:05.021Z,25.50
2022-08-11T15:50:34.593Z,25.30
2022-08-11T15:53:11.987Z,25.20
2022-08-11T15:55:39.859Z,25.10
2022-08-11T15:58:28.232Z,25.00
2022-08-11T16:01:15.611Z,24.90
2022-08-11T16:04:13.154Z,24.80
2022-08-11T16:06:53.321Z,24.70
2022-08-11T16:09:32.858Z,24.50
2022-08-11T16:12:19.221Z,24.10
2022-08-11T16:15:09.685Z,23.60
2022-08-11T16:17:48.794Z,23.20
2022-08-11T16:20:20.246Z,22.90
2022-08-11T16:22:57.247Z,22.60
2022-08-11T16:27:02.606Z,22.50
2022-08-11T16:28:22.080Z,22.50
2022-08-11T16:30:51.008Z,22.50
2022-08-11T16:33:48.646Z,22.40
2022-08-11T16:36:28.148Z,22.40
2022-08-11T16:39:00.138Z,22.30
2022-08-11T16:41:49.639Z,22.40
2022-08-11T16:44:38.317Z,22.40
2022-08-11T16:47:16.328Z,22.30
2022-08-11T16:49:52.190Z,22.10
2022-08-11T16:52:22.858Z,22.10
2022-08-11T16:54:50.182Z,21.90
2022-08-11T16:57:43.955Z,21.90
2022-08-11T17:00:14.967Z,21.90
2022-08-11T17:03:09.956Z,21.80
2022-08-11T17:06:00.594Z,21.70
2022-08-11T17:08:56.917Z,21.70
2022-08-11T17:11:49.867Z,21.70
2022-08-11T17:14:35.562Z,21.60
2022-08-11T17:17:07.582Z,21.60
2022-08-11T17:20:40.659Z,21.70
2022-08-11T17:22:44.028Z,21.70
2022-08-11T17:25:11.727Z,21.70
2022-08-11T17:27:39.784Z,21.70
2022-08-11T17:30:08.453Z,21.60
2022-08-11T17:33:00.946Z,21.60
2022-08-11T17:35:33.268Z,21.60
2022-08-11T17:38:06.929Z,21.60
2022-08-11T17:40:38.816Z,21.60
2022-08-11T17:43:28.147Z,21.60
2022-08-11T17:46:15.971Z,21.50
2022-08-11T17:48:47.328Z,21.40
2022-08-11T17:51:38.723Z,21.30
2022-08-11T17:54:25.836Z,21.10
2022-08-11T17:57:21.268Z,20.90
2022-08-11T17:59:54.226Z,20.80
2022-08-11T18:02:43.274Z,20.60
2022-08-11T18:05:13.657Z,20.60
2022-08-11T18:08:04.134Z,20.30
2022-08-11T18:10:51.792Z,20.20
2022-08-11T18:13:41.991Z,20.00
2022-08-11T18:16:28.348Z,19.80
2022-08-11T18:19:14.336Z,19.60
2022-08-11T18:22:14.486Z,19.50
2022-08-11T18:25:12.733Z,19.30
2022-08-11T18:28:02.860Z,19.10
2022-08-11T18:31:03.163Z,19.00
2022-08-11T18:34:07.463Z,18.90
2022-08-11T18:37:00.741Z,18.70
2022-08-11T18:39:56.071Z,18.60
2022-08-11T18:42:43.580Z,18.50
2022-08-11T18:45:38.448Z,18.40
2022-08-11T18:48:37.137Z,18.30
2022-08-11T18:51:31.780Z,18.20
2022-08-11T18:54:28.030Z,18.00
2022-08-11T18:57:16.632Z,18.00
2022-08-11T19:00:04.724Z,17.80
2022-08-11T19:02:51.449Z,17.70
2022-08-11T19:06:32.204Z,17.60
2022-08-11T19:08:53.438Z,17.60
2022-08-11T19:11:42.767Z,17.50
2022-08-11T19:14:31.217Z,17.50
2022-08-11T19:17:43.611Z,17.40
2022-08-11T19:20:31.442Z,17.30
2022-08-11T19:23:18.537Z,17.20
2022-08-11T19:26:06.659Z,17.00
2022-08-11T19:28:55.509Z,17.00
2022-08-11T19:31:45.019Z,16.90
2022-08-11T19:34:39.553Z,16.80
2022-08-11T19:37:26.397Z,16.80
2022-08-11T19:40:16.444Z,16.80
2022-08-11T19:43:03.866Z,16.80
2022-08-11T19:46:01.878Z,16.70
2022-08-11T19:48:48.732Z,16.70
2022-08-11T19:51:35.732Z,16.70
2022-08-11T19:54:23.187Z,16.60
2022-08-11T19:57:09.659Z,16.50
2022-08-11T19:59:56.533Z,16.50
2022-08-11T20:02:42.197Z,16.40
2022-08-11T20:05:28.350Z,16.30
2022-08-11T20:08:16.805Z,16.30
2022-08-11T20:11:06.052Z,16.20
2022-08-11T20:13:53.019Z,16.20
2022-08-11T20:16:41.202Z,16.10
2022-08-11T20:19:56.443Z,16.00
2022-08-11T20:22:35.624Z,15.90
2022-08-11T20:25:23.906Z,15.80
2022-08-11T20:28:11.061Z,15.80
2022-08-11T20:30:57.692Z,15.70
2022-08-11T20:33:43.655Z,15.70
2022-08-11T20:36:32.037Z,15.70
2022-08-11T20:39:18.950Z,15.70
2022-08-11T20:42:07.401Z,15.80
2022-08-11T20:44:55.921Z,15.80
2022-08-11T20:47:59.918Z,15.70
2022-08-11T20:50:47.611Z,15.70
2022-08-11T20:53:39.196Z,15.70
2022-08-11T20:56:28.886Z,15.60
2022-08-11T20:59:18.999Z,15.50
2022-08-11T21:02:09.589Z,15.40
2022-08-11T21:05:00.417Z,15.40
2022-08-11T21:08:09.501Z,15.40
2022-08-11T21:11:00.942Z,15.40
2022-08-11T21:13:52.507Z,15.40
2022-08-11T21:16:49.189Z,15.30
2022-08-11T21:20:01.737Z,15.20
2022-08-11T21:23:05.332Z,15.20
2022-08-11T21:26:00.985Z,15.10
2022-08-11T21:28:48.918Z,15.00
2022-08-11T21:31:36.927Z,14.90
2022-08-11T21:34:24.930Z,14.90
2022-08-11T21:37:12.172Z,14.90
2022-08-11T21:40:17.506Z,14.90
2022-08-11T21:43:05.797Z,14.80
2022-08-11T21:45:55.734Z,14.80
2022-08-11T21:48:44.643Z,14.70
2022-08-11T21:51:30.189Z,14.60
2022-08-11T21:54:19.998Z,14.50
2022-08-11T21:57:07.463Z,14.50
2022-08-11T22:00:13.779Z,14.40
2022-08-11T22:03:03.364Z,14.40
2022-08-11T22:05:52.200Z,14.30
2022-08-11T22:08:38.288Z,14.20
2022-08-11T22:11:31.916Z,14.20
2022-08-11T22:14:20.099Z,14.20
2022-08-11T22:17:05.671Z,14.00
2022-08-11T22:19:54.545Z,13.90
2022-08-11T22:22:51.864Z,13.90
2022-08-11T22:25:51.618Z,13.90
2022-08-11T22:28:45.325Z,13.80
2022-08-11T22:31:32.289Z,13.70
2022-08-11T22:34:18.208Z,13.70
2022-08-11T22:37:06.617Z,13.70
2022-08-11T22:39:59.840Z,13.70
2022-08-11T22:42:50.062Z,13.60
2022-08-11T22:45:36.299Z,13.50
2022-08-11T22:48:24.257Z,13.50
2022-08-11T22:51:10.744Z,13.50
2022-08-11T22:53:59.112Z,13.50
2022-08-11T22:56:49.547Z,13.50
2022-08-11T22:59:37.211Z,13.40
2022-08-11T23:02:24.636Z,13.40
2022-08-11T23:05:11.469Z,13.40
2022-08-11T23:07:58.240Z,13.30
2022-08-11T23:10:45.283Z,13.30
2022-08-11T23:13:32.149Z,13.20
2022-08-11T23:16:18.741Z,13.20
2022-08-11T23:19:05.166Z,13.20
2022-08-11T23:21:53.587Z,13.10
2022-08-11T23:24:40.068Z,13.10
2022-08-11T23:27:28.064Z,13.10
2022-08-11T23:30:17.220Z,13.10
2022-08-11T23:33:07.660Z,13.10
2022-08-11T23:36:01.064Z,13.10
2022-08-11T23:38:50.489Z,13.10
2022-08-11T23:41:36.418Z,13.20
2022-08-11T23:44:25.179Z,13.20
2022-08-11T23:47:13.770Z,13.30
2022-08-11T23:50:01.205Z,13.50
2022-08-11T23:52:47.822Z,13.70
2022-08-11T23:55:33.818Z,13.80
2022-08-11T23:58:19.426Z,13.80
